Terminal Aerodrome Forecast
Issued by NWS

Home | Current Version | Previous Version | Text Only | Print | Product List | Glossary On
Versions: 1 2 3 4 5 6 7 8 9 10 11 12 13
000
FTUS46 KSEW 050500
TAFPAE
TAF
KPAE 050520Z 0506/0606 21010KT P6SM SCT050
     FM050800 20008KT P6SM VCSH BKN050
     FM051400 18006KT P6SM -SHRA BKN015 BKN030
     FM051800 VRB05KT P6SM -SHRA SCT015 BKN030 PROB30 0518/0524 4SM
      -TSRA BKN015CB=

USA.gov is the U.S. government's official web portal to all federal, state and local government web resources and services.